sensor_id;sensor_type;location;lat;lon;timestamp;temperature;humidity
24152;DHT22;12311;50.866;4.332;2022-12-29T00:02:04;11.90;99.90
24152;DHT22;12311;50.866;4.332;2022-12-29T00:04:30;11.90;99.90
24152;DHT22;12311;50.866;4.332;2022-12-29T00:06:56;12.00;99.90
24152;DHT22;12311;50.866;4.332;2022-12-29T00:09:22;11.90;99.90
24152;DHT22;12311;50.866;4.332;2022-12-29T00:11:47;11.90;99.90
24152;DHT22;12311;50.866;4.332;2022-12-29T00:14:15;11.90;99.90
24152;DHT22;12311;50.866;4.332;2022-12-29T00:16:59;11.90;99.90
24152;DHT22;12311;50.866;4.332;2022-12-29T00:19:25;12.00;99.90
24152;DHT22;12311;50.866;4.332;2022-12-29T00:22:11;12.00;99.90
24152;DHT22;12311;50.866;4.332;2022-12-29T00:24:56;12.10;99.90
24152;DHT22;12311;50.866;4.332;2022-12-29T00:27:40;12.10;99.90
24152;DHT22;12311;50.866;4.332;2022-12-29T00:30:24;12.10;99.90
24152;DHT22;12311;50.866;4.332;2022-12-29T00:33:17;12.10;99.90
24152;DHT22;12311;50.866;4.332;2022-12-29T00:36:27;12.20;99.90
24152;DHT22;12311;50.866;4.332;2022-12-29T00:38:58;12.20;99.90
24152;DHT22;12311;50.866;4.332;2022-12-29T00:41:43;12.20;99.90
24152;DHT22;12311;50.866;4.332;2022-12-29T00:44:27;12.20;99.90
24152;DHT22;12311;50.866;4.332;2022-12-29T00:46:53;12.40;99.90
24152;DHT22;12311;50.866;4.332;2022-12-29T00:49:18;12.40;99.90
24152;DHT22;12311;50.866;4.332;2022-12-29T00:54:23;12.30;99.90
24152;DHT22;12311;50.866;4.332;2022-12-29T00:56:50;12.40;99.90
24152;DHT22;12311;50.866;4.332;2022-12-29T00:59:16;12.40;99.90
24152;DHT22;12311;50.866;4.332;2022-12-29T01:01:43;12.40;99.90
24152;DHT22;12311;50.866;4.332;2022-12-29T01:04:09;12.40;99.90
24152;DHT22;12311;50.866;4.332;2022-12-29T01:06:39;12.40;99.90
24152;DHT22;12311;50.866;4.332;2022-12-29T01:09:05;12.40;99.90
24152;DHT22;12311;50.866;4.332;2022-12-29T01:11:50;12.40;99.90
24152;DHT22;12311;50.866;4.332;2022-12-29T01:14:17;12.40;99.90
24152;DHT22;12311;50.866;4.332;2022-12-29T01:16:43;12.30;99.90
24152;DHT22;12311;50.866;4.332;2022-12-29T01:19:09;12.30;99.90
24152;DHT22;12311;50.866;4.332;2022-12-29T01:21:34;12.20;99.90
24152;DHT22;12311;50.866;4.332;2022-12-29T01:24:00;12.10;99.90
24152;DHT22;12311;50.866;4.332;2022-12-29T01:26:26;12.00;99.90
24152;DHT22;12311;50.866;4.332;2022-12-29T01:28:51;11.80;99.90
24152;DHT22;12311;50.866;4.332;2022-12-29T01:31:17;11.80;99.90
24152;DHT22;12311;50.866;4.332;2022-12-29T01:33:43;11.70;99.90
24152;DHT22;12311;50.866;4.332;2022-12-29T01:36:11;11.60;99.90
24152;DHT22;12311;50.866;4.332;2022-12-29T01:38:38;11.50;99.90
24152;DHT22;12311;50.866;4.332;2022-12-29T01:41:05;11.40;99.90
24152;DHT22;12311;50.866;4.332;2022-12-29T01:43:56;11.40;99.90
24152;DHT22;12311;50.866;4.332;2022-12-29T01:49:08;11.40;99.90
24152;DHT22;12311;50.866;4.332;2022-12-29T01:51:40;11.30;99.90
24152;DHT22;12311;50.866;4.332;2022-12-29T01:54:11;11.40;99.90
24152;DHT22;12311;50.866;4.332;2022-12-29T01:56:39;11.40;99.90
24152;DHT22;12311;50.866;4.332;2022-12-29T01:59:08;11.40;99.90
24152;DHT22;12311;50.866;4.332;2022-12-29T02:01:36;11.40;99.90
24152;DHT22;12311;50.866;4.332;2022-12-29T02:04:02;11.40;99.90
24152;DHT22;12311;50.866;4.332;2022-12-29T02:06:33;11.40;99.90
24152;DHT22;12311;50.866;4.332;2022-12-29T02:09:00;11.40;99.90
24152;DHT22;12311;50.866;4.332;2022-12-29T02:11:28;11.30;99.90
24152;DHT22;12311;50.866;4.332;2022-12-29T02:13:55;11.20;99.90
24152;DHT22;12311;50.866;4.332;2022-12-29T02:27:58;10.50;99.90
24152;DHT22;12311;50.866;4.332;2022-12-29T02:33:39;10.30;99.90
24152;DHT22;12311;50.866;4.332;2022-12-29T02:36:24;10.30;99.90
24152;DHT22;12311;50.866;4.332;2022-12-29T02:39:24;10.30;99.90
24152;DHT22;12311;50.866;4.332;2022-12-29T02:42:08;10.30;99.90
24152;DHT22;12311;50.866;4.332;2022-12-29T02:44:43;10.30;99.90
24152;DHT22;12311;50.866;4.332;2022-12-29T02:50:06;10.30;99.90
24152;DHT22;12311;50.866;4.332;2022-12-29T02:52:42;10.30;99.90
24152;DHT22;12311;50.866;4.332;2022-12-29T02:55:11;10.30;99.90
24152;DHT22;12311;50.866;4.332;2022-12-29T02:57:37;10.30;99.90
24152;DHT22;12311;50.866;4.332;2022-12-29T03:00:12;10.30;99.90
24152;DHT22;12311;50.866;4.332;2022-12-29T03:02:58;10.20;99.90
24152;DHT22;12311;50.866;4.332;2022-12-29T03:08:36;10.20;99.90
24152;DHT22;12311;50.866;4.332;2022-12-29T03:11:11;10.10;99.90
24152;DHT22;12311;50.866;4.332;2022-12-29T03:17:29;9.90;99.90
24152;DHT22;12311;50.866;4.332;2022-12-29T03:19:40;9.90;99.90
24152;DHT22;12311;50.866;4.332;2022-12-29T03:22:16;9.90;99.90
24152;DHT22;12311;50.866;4.332;2022-12-29T03:24:55;9.90;99.90
24152;DHT22;12311;50.866;4.332;2022-12-29T03:27:45;10.00;99.90
24152;DHT22;12311;50.866;4.332;2022-12-29T03:30:13;10.00;99.90
24152;DHT22;12311;50.866;4.332;2022-12-29T03:32:43;10.00;99.90
24152;DHT22;12311;50.866;4.332;2022-12-29T03:35:12;10.10;99.90
24152;DHT22;12311;50.866;4.332;2022-12-29T03:37:42;10.10;99.90
24152;DHT22;12311;50.866;4.332;2022-12-29T03:40:09;10.20;99.90
24152;DHT22;12311;50.866;4.332;2022-12-29T03:42:36;10.30;99.90
24152;DHT22;12311;50.866;4.332;2022-12-29T03:45:04;10.30;99.90
24152;DHT22;12311;50.866;4.332;2022-12-29T03:47:30;10.40;99.90
24152;DHT22;12311;50.866;4.332;2022-12-29T03:49:56;10.50;99.90
24152;DHT22;12311;50.866;4.332;2022-12-29T03:52:21;10.50;99.90
24152;DHT22;12311;50.866;4.332;2022-12-29T03:54:47;10.50;99.90
24152;DHT22;12311;50.866;4.332;2022-12-29T03:57:13;10.50;99.90
24152;DHT22;12311;50.866;4.332;2022-12-29T03:59:38;10.50;99.90
24152;DHT22;12311;50.866;4.332;2022-12-29T04:02:04;10.50;99.90
24152;DHT22;12311;50.866;4.332;2022-12-29T04:04:30;10.50;99.90
24152;DHT22;12311;50.866;4.332;2022-12-29T04:06:55;10.50;99.90
24152;DHT22;12311;50.866;4.332;2022-12-29T04:09:21;10.50;99.90
24152;DHT22;12311;50.866;4.332;2022-12-29T04:11:47;10.50;99.90
24152;DHT22;12311;50.866;4.332;2022-12-29T04:14:12;10.40;99.90
24152;DHT22;12311;50.866;4.332;2022-12-29T04:16:38;10.40;99.90
24152;DHT22;12311;50.866;4.332;2022-12-29T04:19:05;10.30;99.90
24152;DHT22;12311;50.866;4.332;2022-12-29T04:21:31;10.30;99.90
24152;DHT22;12311;50.866;4.332;2022-12-29T04:23:56;10.30;99.90
24152;DHT22;12311;50.866;4.332;2022-12-29T04:26:22;10.30;99.90
24152;DHT22;12311;50.866;4.332;2022-12-29T04:28:48;10.30;99.90
24152;DHT22;12311;50.866;4.332;2022-12-29T04:31:13;10.30;99.90
24152;DHT22;12311;50.866;4.332;2022-12-29T04:33:39;10.30;99.90
24152;DHT22;12311;50.866;4.332;2022-12-29T04:36:05;10.30;99.90
24152;DHT22;12311;50.866;4.332;2022-12-29T04:38:31;10.30;99.90
24152;DHT22;12311;50.866;4.332;2022-12-29T04:40:59;10.40;99.90
24152;DHT22;12311;50.866;4.332;2022-12-29T04:43:26;10.40;99.90
24152;DHT22;12311;50.866;4.332;2022-12-29T04:45:51;10.40;99.90
24152;DHT22;12311;50.866;4.332;2022-12-29T04:48:17;10.40;99.90
24152;DHT22;12311;50.866;4.332;2022-12-29T04:50:43;10.30;99.90
24152;DHT22;12311;50.866;4.332;2022-12-29T04:53:09;10.30;99.90
24152;DHT22;12311;50.866;4.332;2022-12-29T04:55:35;10.30;99.90
24152;DHT22;12311;50.866;4.332;2022-12-29T04:58:00;10.30;99.90
24152;DHT22;12311;50.866;4.332;2022-12-29T05:00:26;10.40;99.90
24152;DHT22;12311;50.866;4.332;2022-12-29T05:02:52;10.40;99.90
24152;DHT22;12311;50.866;4.332;2022-12-29T05:05:18;10.50;99.90
24152;DHT22;12311;50.866;4.332;2022-12-29T05:07:43;10.50;99.90
24152;DHT22;12311;50.866;4.332;2022-12-29T05:10:10;10.50;99.90
24152;DHT22;12311;50.866;4.332;2022-12-29T05:12:37;10.60;99.90
24152;DHT22;12311;50.866;4.332;2022-12-29T05:15:04;10.60;99.90
24152;DHT22;12311;50.866;4.332;2022-12-29T05:17:30;10.60;99.90
24152;DHT22;12311;50.866;4.332;2022-12-29T05:19:55;10.60;99.90
24152;DHT22;12311;50.866;4.332;2022-12-29T05:22:21;10.60;99.90
24152;DHT22;12311;50.866;4.332;2022-12-29T05:24:47;10.70;99.90
24152;DHT22;12311;50.866;4.332;2022-12-29T05:27:13;10.70;99.90
24152;DHT22;12311;50.866;4.332;2022-12-29T05:29:38;10.70;99.90
24152;DHT22;12311;50.866;4.332;2022-12-29T05:32:04;10.70;99.90
24152;DHT22;12311;50.866;4.332;2022-12-29T05:34:29;10.80;99.90
24152;DHT22;12311;50.866;4.332;2022-12-29T05:36:55;10.70;99.90
24152;DHT22;12311;50.866;4.332;2022-12-29T05:39:21;10.80;99.90
24152;DHT22;12311;50.866;4.332;2022-12-29T05:41:46;10.70;99.90
24152;DHT22;12311;50.866;4.332;2022-12-29T05:44:12;10.70;99.90
24152;DHT22;12311;50.866;4.332;2022-12-29T05:46:38;10.70;99.90
24152;DHT22;12311;50.866;4.332;2022-12-29T05:49:04;10.70;99.90
24152;DHT22;12311;50.866;4.332;2022-12-29T05:51:30;10.70;99.90
24152;DHT22;12311;50.866;4.332;2022-12-29T05:53:56;10.80;99.90
24152;DHT22;12311;50.866;4.332;2022-12-29T05:56:22;10.80;99.90
24152;DHT22;12311;50.866;4.332;2022-12-29T05:58:47;10.80;99.90
24152;DHT22;12311;50.866;4.332;2022-12-29T06:01:13;10.80;99.90
24152;DHT22;12311;50.866;4.332;2022-12-29T06:03:39;10.80;99.90
24152;DHT22;12311;50.866;4.332;2022-12-29T06:06:05;10.80;99.90
24152;DHT22;12311;50.866;4.332;2022-12-29T06:08:30;10.70;99.90
24152;DHT22;12311;50.866;4.332;2022-12-29T06:10:56;10.70;99.90
24152;DHT22;12311;50.866;4.332;2022-12-29T06:13:22;10.60;99.90
24152;DHT22;12311;50.866;4.332;2022-12-29T06:15:48;10.70;99.90
24152;DHT22;12311;50.866;4.332;2022-12-29T06:18:14;10.70;99.90
24152;DHT22;12311;50.866;4.332;2022-12-29T06:20:40;10.60;99.90
24152;DHT22;12311;50.866;4.332;2022-12-29T06:23:06;10.60;99.90
24152;DHT22;12311;50.866;4.332;2022-12-29T06:25:32;10.60;99.90
24152;DHT22;12311;50.866;4.332;2022-12-29T06:27:59;10.60;99.90
24152;DHT22;12311;50.866;4.332;2022-12-29T06:30:25;10.60;99.90
24152;DHT22;12311;50.866;4.332;2022-12-29T06:32:51;10.60;99.90
24152;DHT22;12311;50.866;4.332;2022-12-29T06:35:17;10.70;99.90
24152;DHT22;12311;50.866;4.332;2022-12-29T06:37:43;10.70;99.90
24152;DHT22;12311;50.866;4.332;2022-12-29T06:40:09;10.70;99.90
24152;DHT22;12311;50.866;4.332;2022-12-29T06:42:35;10.80;99.90
24152;DHT22;12311;50.866;4.332;2022-12-29T06:45:01;10.90;99.90
24152;DHT22;12311;50.866;4.332;2022-12-29T06:47:27;10.90;99.90
24152;DHT22;12311;50.866;4.332;2022-12-29T06:49:53;10.90;99.90
24152;DHT22;12311;50.866;4.332;2022-12-29T06:52:18;10.90;99.90
24152;DHT22;12311;50.866;4.332;2022-12-29T06:54:44;10.90;99.90
24152;DHT22;12311;50.866;4.332;2022-12-29T06:57:10;10.90;99.90
24152;DHT22;12311;50.866;4.332;2022-12-29T06:59:35;10.90;99.90
24152;DHT22;12311;50.866;4.332;2022-12-29T07:02:01;10.90;99.90
24152;DHT22;12311;50.866;4.332;2022-12-29T07:04:29;10.90;99.90
24152;DHT22;12311;50.866;4.332;2022-12-29T07:06:55;11.00;99.90
24152;DHT22;12311;50.866;4.332;2022-12-29T07:09:21;11.00;99.90
24152;DHT22;12311;50.866;4.332;2022-12-29T07:11:46;11.00;99.90
24152;DHT22;12311;50.866;4.332;2022-12-29T07:14:12;10.90;99.90
24152;DHT22;12311;50.866;4.332;2022-12-29T07:16:38;10.90;99.90
24152;DHT22;12311;50.866;4.332;2022-12-29T07:19:04;11.00;99.90
24152;DHT22;12311;50.866;4.332;2022-12-29T07:21:30;11.00;99.90
24152;DHT22;12311;50.866;4.332;2022-12-29T07:23:56;11.10;99.90
24152;DHT22;12311;50.866;4.332;2022-12-29T07:26:22;11.00;99.90
24152;DHT22;12311;50.866;4.332;2022-12-29T07:28:48;11.10;99.90
24152;DHT22;12311;50.866;4.332;2022-12-29T07:31:16;11.00;99.90
24152;DHT22;12311;50.866;4.332;2022-12-29T07:33:42;11.00;99.90
24152;DHT22;12311;50.866;4.332;2022-12-29T07:36:09;11.00;99.90
24152;DHT22;12311;50.866;4.332;2022-12-29T07:38:35;11.00;99.90
24152;DHT22;12311;50.866;4.332;2022-12-29T07:41:01;11.00;99.90
24152;DHT22;12311;50.866;4.332;2022-12-29T07:43:26;11.00;99.90
24152;DHT22;12311;50.866;4.332;2022-12-29T07:45:52;11.00;99.90
24152;DHT22;12311;50.866;4.332;2022-12-29T07:48:18;11.00;99.90
24152;DHT22;12311;50.866;4.332;2022-12-29T07:50:43;11.00;99.90
24152;DHT22;12311;50.866;4.332;2022-12-29T07:53:09;11.00;99.90
24152;DHT22;12311;50.866;4.332;2022-12-29T07:55:35;11.00;99.90
24152;DHT22;12311;50.866;4.332;2022-12-29T07:58:00;11.00;99.90
24152;DHT22;12311;50.866;4.332;2022-12-29T08:00:26;10.90;99.90
24152;DHT22;12311;50.866;4.332;2022-12-29T08:02:52;11.00;99.90
24152;DHT22;12311;50.866;4.332;2022-12-29T08:05:17;11.00;99.90
24152;DHT22;12311;50.866;4.332;2022-12-29T08:07:44;11.00;99.90
24152;DHT22;12311;50.866;4.332;2022-12-29T08:10:10;11.00;99.90
24152;DHT22;12311;50.866;4.332;2022-12-29T08:12:38;11.00;99.90
24152;DHT22;12311;50.866;4.332;2022-12-29T08:15:05;11.00;99.90
24152;DHT22;12311;50.866;4.332;2022-12-29T08:17:31;11.00;99.90
24152;DHT22;12311;50.866;4.332;2022-12-29T08:19:58;11.00;99.90
24152;DHT22;12311;50.866;4.332;2022-12-29T08:22:24;11.00;99.90
24152;DHT22;12311;50.866;4.332;2022-12-29T08:24:50;11.00;99.90
24152;DHT22;12311;50.866;4.332;2022-12-29T08:27:16;11.00;99.90
24152;DHT22;12311;50.866;4.332;2022-12-29T08:29:41;11.00;99.90
24152;DHT22;12311;50.866;4.332;2022-12-29T08:32:07;11.00;99.90
24152;DHT22;12311;50.866;4.332;2022-12-29T08:34:33;11.00;99.90
24152;DHT22;12311;50.866;4.332;2022-12-29T08:36:58;11.00;99.90
24152;DHT22;12311;50.866;4.332;2022-12-29T08:39:24;11.00;99.90
24152;DHT22;12311;50.866;4.332;2022-12-29T08:41:50;10.90;99.90
24152;DHT22;12311;50.866;4.332;2022-12-29T08:44:15;10.90;99.90
24152;DHT22;12311;50.866;4.332;2022-12-29T08:46:41;10.90;99.90
24152;DHT22;12311;50.866;4.332;2022-12-29T08:49:07;11.00;99.90
24152;DHT22;12311;50.866;4.332;2022-12-29T08:51:33;11.00;99.90
24152;DHT22;12311;50.866;4.332;2022-12-29T08:53:59;10.90;99.90
24152;DHT22;12311;50.866;4.332;2022-12-29T08:56:24;10.90;99.90
24152;DHT22;12311;50.866;4.332;2022-12-29T08:58:51;11.00;99.90
24152;DHT22;12311;50.866;4.332;2022-12-29T09:01:17;10.90;99.90
24152;DHT22;12311;50.866;4.332;2022-12-29T09:03:43;10.90;99.90
24152;DHT22;12311;50.866;4.332;2022-12-29T09:06:09;10.80;99.90
24152;DHT22;12311;50.866;4.332;2022-12-29T09:08:34;10.70;99.90
24152;DHT22;12311;50.866;4.332;2022-12-29T09:11:08;10.70;99.90
24152;DHT22;12311;50.866;4.332;2022-12-29T09:13:34;10.70;99.90
24152;DHT22;12311;50.866;4.332;2022-12-29T09:16:00;10.60;99.90
24152;DHT22;12311;50.866;4.332;2022-12-29T09:18:26;10.60;99.90
24152;DHT22;12311;50.866;4.332;2022-12-29T09:20:59;10.50;99.90
24152;DHT22;12311;50.866;4.332;2022-12-29T09:23:25;10.40;99.90
24152;DHT22;12311;50.866;4.332;2022-12-29T09:25:52;10.40;99.90
24152;DHT22;12311;50.866;4.332;2022-12-29T09:28:18;10.40;99.90
24152;DHT22;12311;50.866;4.332;2022-12-29T09:30:44;10.40;99.90
24152;DHT22;12311;50.866;4.332;2022-12-29T09:33:09;10.20;99.90
24152;DHT22;12311;50.866;4.332;2022-12-29T09:35:35;10.00;99.90
24152;DHT22;12311;50.866;4.332;2022-12-29T09:38:01;10.00;99.90
24152;DHT22;12311;50.866;4.332;2022-12-29T09:40:32;9.90;99.90
24152;DHT22;12311;50.866;4.332;2022-12-29T09:45:31;9.90;99.90
24152;DHT22;12311;50.866;4.332;2022-12-29T09:47:58;10.00;99.90
24152;DHT22;12311;50.866;4.332;2022-12-29T09:50:28;10.00;99.90
24152;DHT22;12311;50.866;4.332;2022-12-29T09:52:59;10.00;99.90
24152;DHT22;12311;50.866;4.332;2022-12-29T09:56:15;10.00;99.90
24152;DHT22;12311;50.866;4.332;2022-12-29T09:59:08;10.20;99.90
24152;DHT22;12311;50.866;4.332;2022-12-29T10:02:04;10.30;99.90
24152;DHT22;12311;50.866;4.332;2022-12-29T10:04:32;10.40;99.90
24152;DHT22;12311;50.866;4.332;2022-12-29T10:07:05;10.50;99.90
24152;DHT22;12311;50.866;4.332;2022-12-29T10:25:39;10.90;99.90
24152;DHT22;12311;50.866;4.332;2022-12-29T10:28:17;10.90;99.90
24152;DHT22;12311;50.866;4.332;2022-12-29T10:30:46;11.00;99.90
24152;DHT22;12311;50.866;4.332;2022-12-29T10:33:17;11.10;99.90
24152;DHT22;12311;50.866;4.332;2022-12-29T10:35:44;11.10;99.90
24152;DHT22;12311;50.866;4.332;2022-12-29T10:38:34;11.20;99.90
24152;DHT22;12311;50.866;4.332;2022-12-29T10:41:09;11.10;99.90
24152;DHT22;12311;50.866;4.332;2022-12-29T10:43:56;11.10;99.90
24152;DHT22;12311;50.866;4.332;2022-12-29T10:46:34;11.20;99.90
24152;DHT22;12311;50.866;4.332;2022-12-29T10:49:00;11.20;99.90
24152;DHT22;12311;50.866;4.332;2022-12-29T10:51:30;11.20;99.90
24152;DHT22;12311;50.866;4.332;2022-12-29T10:56:43;11.40;99.90
24152;DHT22;12311;50.866;4.332;2022-12-29T10:59:20;11.50;99.90
24152;DHT22;12311;50.866;4.332;2022-12-29T11:07:12;11.60;99.90
24152;DHT22;12311;50.866;4.332;2022-12-29T11:09:41;11.60;99.90
24152;DHT22;12311;50.866;4.332;2022-12-29T11:12:37;11.40;99.90
24152;DHT22;12311;50.866;4.332;2022-12-29T11:17:51;11.50;99.90
24152;DHT22;12311;50.866;4.332;2022-12-29T11:20:38;11.70;99.90
24152;DHT22;12311;50.866;4.332;2022-12-29T11:23:34;11.80;99.90
24152;DHT22;12311;50.866;4.332;2022-12-29T11:26:22;12.00;99.90
24152;DHT22;12311;50.866;4.332;2022-12-29T11:31:40;11.80;99.90
24152;DHT22;12311;50.866;4.332;2022-12-29T11:34:07;11.70;99.90
24152;DHT22;12311;50.866;4.332;2022-12-29T11:36:34;11.60;99.90
24152;DHT22;12311;50.866;4.332;2022-12-29T11:39:01;11.50;99.90
24152;DHT22;12311;50.866;4.332;2022-12-29T11:41:31;11.40;99.90
24152;DHT22;12311;50.866;4.332;2022-12-29T11:43:59;11.30;99.90
24152;DHT22;12311;50.866;4.332;2022-12-29T11:46:37;11.20;99.90
24152;DHT22;12311;50.866;4.332;2022-12-29T11:49:04;11.20;99.90
24152;DHT22;12311;50.866;4.332;2022-12-29T11:54:00;11.00;99.90
24152;DHT22;12311;50.866;4.332;2022-12-29T11:56:37;11.00;99.90
24152;DHT22;12311;50.866;4.332;2022-12-29T12:02:03;11.00;99.90
24152;DHT22;12311;50.866;4.332;2022-12-29T12:04:36;11.00;99.90
24152;DHT22;12311;50.866;4.332;2022-12-29T12:07:13;11.00;99.90
24152;DHT22;12311;50.866;4.332;2022-12-29T12:09:59;11.00;99.90
24152;DHT22;12311;50.866;4.332;2022-12-29T12:12:48;11.00;99.90
24152;DHT22;12311;50.866;4.332;2022-12-29T12:15:21;11.00;99.90
24152;DHT22;12311;50.866;4.332;2022-12-29T12:17:54;11.00;99.90
24152;DHT22;12311;50.866;4.332;2022-12-29T12:20:44;11.10;99.90
24152;DHT22;12311;50.866;4.332;2022-12-29T12:25:43;10.70;99.90
24152;DHT22;12311;50.866;4.332;2022-12-29T12:28:23;10.70;99.90
24152;DHT22;12311;50.866;4.332;2022-12-29T12:30:55;10.70;99.90
24152;DHT22;12311;50.866;4.332;2022-12-29T12:33:30;10.70;99.90
24152;DHT22;12311;50.866;4.332;2022-12-29T12:47:09;11.20;99.90
24152;DHT22;12311;50.866;4.332;2022-12-29T12:58:33;11.10;99.90
24152;DHT22;12311;50.866;4.332;2022-12-29T13:01:14;11.10;99.90
24152;DHT22;12311;50.866;4.332;2022-12-29T13:09:24;11.00;99.90
24152;DHT22;12311;50.866;4.332;2022-12-29T13:12:24;11.00;99.90
24152;DHT22;12311;50.866;4.332;2022-12-29T13:15:09;11.10;99.90
24152;DHT22;12311;50.866;4.332;2022-12-29T13:17:54;11.00;99.90
24152;DHT22;12311;50.866;4.332;2022-12-29T13:20:50;11.00;99.90
24152;DHT22;12311;50.866;4.332;2022-12-29T13:23:39;11.00;99.90
24152;DHT22;12311;50.866;4.332;2022-12-29T13:26:20;11.00;99.90
24152;DHT22;12311;50.866;4.332;2022-12-29T13:29:04;11.20;99.90
24152;DHT22;12311;50.866;4.332;2022-12-29T13:34:02;11.20;99.90
24152;DHT22;12311;50.866;4.332;2022-12-29T13:36:45;11.10;99.90
24152;DHT22;12311;50.866;4.332;2022-12-29T13:39:18;11.00;99.90
24152;DHT22;12311;50.866;4.332;2022-12-29T13:41:53;10.90;99.90
24152;DHT22;12311;50.866;4.332;2022-12-29T13:44:28;10.80;99.90
24152;DHT22;12311;50.866;4.332;2022-12-29T13:46:56;10.80;99.90
24152;DHT22;12311;50.866;4.332;2022-12-29T13:49:24;11.00;99.90
24152;DHT22;12311;50.866;4.332;2022-12-29T13:52:04;11.00;99.90
24152;DHT22;12311;50.866;4.332;2022-12-29T14:00:29;10.80;99.90
24152;DHT22;12311;50.866;4.332;2022-12-29T14:06:15;10.80;99.90
24152;DHT22;12311;50.866;4.332;2022-12-29T14:08:42;10.70;99.90
24152;DHT22;12311;50.866;4.332;2022-12-29T14:11:14;10.90;99.90
24152;DHT22;12311;50.866;4.332;2022-12-29T14:13:43;10.80;99.90
24152;DHT22;12311;50.866;4.332;2022-12-29T14:16:25;10.70;99.90
24152;DHT22;12311;50.866;4.332;2022-12-29T14:18:51;10.80;99.90
24152;DHT22;12311;50.866;4.332;2022-12-29T14:21:21;10.80;99.90
24152;DHT22;12311;50.866;4.332;2022-12-29T14:23:49;10.70;99.90
24152;DHT22;12311;50.866;4.332;2022-12-29T14:28:56;10.80;99.90
24152;DHT22;12311;50.866;4.332;2022-12-29T14:31:41;10.90;99.90
24152;DHT22;12311;50.866;4.332;2022-12-29T14:42:20;9.80;99.90
24152;DHT22;12311;50.866;4.332;2022-12-29T14:45:06;9.30;99.90
24152;DHT22;12311;50.866;4.332;2022-12-29T14:47:40;9.10;99.90
24152;DHT22;12311;50.866;4.332;2022-12-29T14:53:02;8.70;99.90
24152;DHT22;12311;50.866;4.332;2022-12-29T14:55:42;8.50;99.90
24152;DHT22;12311;50.866;4.332;2022-12-29T14:58:21;8.50;99.90
24152;DHT22;12311;50.866;4.332;2022-12-29T15:00:50;8.40;99.90
24152;DHT22;12311;50.866;4.332;2022-12-29T15:03:32;8.40;99.90
24152;DHT22;12311;50.866;4.332;2022-12-29T15:06:04;8.40;99.90
24152;DHT22;12311;50.866;4.332;2022-12-29T15:08:48;8.30;99.90
24152;DHT22;12311;50.866;4.332;2022-12-29T15:11:23;8.20;99.90
24152;DHT22;12311;50.866;4.332;2022-12-29T15:13:50;8.10;99.90
24152;DHT22;12311;50.866;4.332;2022-12-29T15:16:25;8.10;99.90
24152;DHT22;12311;50.866;4.332;2022-12-29T15:18:52;8.10;99.90
24152;DHT22;12311;50.866;4.332;2022-12-29T15:21:27;8.00;99.90
24152;DHT22;12311;50.866;4.332;2022-12-29T15:23:54;8.00;99.90
24152;DHT22;12311;50.866;4.332;2022-12-29T15:26:21;8.00;99.90
24152;DHT22;12311;50.866;4.332;2022-12-29T15:28:50;8.00;99.90
24152;DHT22;12311;50.866;4.332;2022-12-29T15:31:23;8.00;99.90
24152;DHT22;12311;50.866;4.332;2022-12-29T15:33:52;8.00;99.90
24152;DHT22;12311;50.866;4.332;2022-12-29T15:36:24;8.00;99.90
24152;DHT22;12311;50.866;4.332;2022-12-29T15:38:51;8.10;99.90
24152;DHT22;12311;50.866;4.332;2022-12-29T15:44:21;8.20;99.90
24152;DHT22;12311;50.866;4.332;2022-12-29T15:46:49;8.20;99.90
24152;DHT22;12311;50.866;4.332;2022-12-29T15:49:15;8.20;99.90
24152;DHT22;12311;50.866;4.332;2022-12-29T15:51:41;8.30;99.90
24152;DHT22;12311;50.866;4.332;2022-12-29T15:54:19;8.40;99.90
24152;DHT22;12311;50.866;4.332;2022-12-29T15:56:46;8.40;99.90
24152;DHT22;12311;50.866;4.332;2022-12-29T15:59:31;8.40;99.90
24152;DHT22;12311;50.866;4.332;2022-12-29T16:01:58;8.30;99.90
24152;DHT22;12311;50.866;4.332;2022-12-29T16:04:26;8.30;99.90
24152;DHT22;12311;50.866;4.332;2022-12-29T16:07:04;8.30;99.90
24152;DHT22;12311;50.866;4.332;2022-12-29T16:09:36;8.20;99.90
24152;DHT22;12311;50.866;4.332;2022-12-29T16:12:52;8.20;99.90
24152;DHT22;12311;50.866;4.332;2022-12-29T16:15:01;8.20;99.90
24152;DHT22;12311;50.866;4.332;2022-12-29T16:17:31;8.20;99.90
24152;DHT22;12311;50.866;4.332;2022-12-29T16:20:14;8.30;99.90
24152;DHT22;12311;50.866;4.332;2022-12-29T16:22:41;8.30;99.90
24152;DHT22;12311;50.866;4.332;2022-12-29T16:25:27;8.30;99.90
24152;DHT22;12311;50.866;4.332;2022-12-29T16:27:54;8.30;99.90
24152;DHT22;12311;50.866;4.332;2022-12-29T16:30:29;8.30;99.90
24152;DHT22;12311;50.866;4.332;2022-12-29T16:33:01;8.30;99.90
24152;DHT22;12311;50.866;4.332;2022-12-29T16:38:16;8.30;99.90
24152;DHT22;12311;50.866;4.332;2022-12-29T16:48:21;8.20;99.90
24152;DHT22;12311;50.866;4.332;2022-12-29T16:50:50;8.30;99.90
24152;DHT22;12311;50.866;4.332;2022-12-29T16:53:36;8.30;99.90
24152;DHT22;12311;50.866;4.332;2022-12-29T16:56:20;8.30;99.90
24152;DHT22;12311;50.866;4.332;2022-12-29T16:59:00;8.40;99.90
24152;DHT22;12311;50.866;4.332;2022-12-29T17:01:26;8.30;99.90
24152;DHT22;12311;50.866;4.332;2022-12-29T17:04:06;8.30;99.90
24152;DHT22;12311;50.866;4.332;2022-12-29T17:06:32;8.30;99.90
24152;DHT22;12311;50.866;4.332;2022-12-29T17:08:57;8.30;99.90
24152;DHT22;12311;50.866;4.332;2022-12-29T17:11:28;8.30;99.90
24152;DHT22;12311;50.866;4.332;2022-12-29T17:16:51;8.30;99.90
24152;DHT22;12311;50.866;4.332;2022-12-29T17:19:19;8.30;99.90
24152;DHT22;12311;50.866;4.332;2022-12-29T17:21:47;8.30;99.90
24152;DHT22;12311;50.866;4.332;2022-12-29T17:24:18;8.30;99.90
24152;DHT22;12311;50.866;4.332;2022-12-29T17:26:53;8.30;99.90
24152;DHT22;12311;50.866;4.332;2022-12-29T17:29:38;8.30;99.90
24152;DHT22;12311;50.866;4.332;2022-12-29T17:32:06;8.30;99.90
24152;DHT22;12311;50.866;4.332;2022-12-29T17:34:35;8.30;99.90
24152;DHT22;12311;50.866;4.332;2022-12-29T17:37:00;8.30;99.90
24152;DHT22;12311;50.866;4.332;2022-12-29T17:39:26;8.30;99.90
24152;DHT22;12311;50.866;4.332;2022-12-29T17:41:52;8.30;99.90
24152;DHT22;12311;50.866;4.332;2022-12-29T17:44:19;8.30;99.90
24152;DHT22;12311;50.866;4.332;2022-12-29T17:46:46;8.30;99.90
24152;DHT22;12311;50.866;4.332;2022-12-29T17:49:14;8.30;99.90
24152;DHT22;12311;50.866;4.332;2022-12-29T17:51:42;8.30;99.90
24152;DHT22;12311;50.866;4.332;2022-12-29T17:54:28;8.40;99.90
24152;DHT22;12311;50.866;4.332;2022-12-29T17:56:54;8.40;99.90
24152;DHT22;12311;50.866;4.332;2022-12-29T17:59:20;8.40;99.90
24152;DHT22;12311;50.866;4.332;2022-12-29T18:01:47;8.30;99.90
24152;DHT22;12311;50.866;4.332;2022-12-29T18:04:16;8.30;99.90
24152;DHT22;12311;50.866;4.332;2022-12-29T18:06:42;8.30;99.90
24152;DHT22;12311;50.866;4.332;2022-12-29T18:09:08;8.20;99.90
24152;DHT22;12311;50.866;4.332;2022-12-29T18:11:41;8.20;99.90
24152;DHT22;12311;50.866;4.332;2022-12-29T18:14:13;8.20;99.90